Marblemount, Washington
Current Conditions -  °F | °C
As of 4:15 AM on Sunday 23 Nov 2014 (Local Time) from KAWO Reporting Station
Overcast Overcast  
Wind Chill: 40°   Ceiling: 2100
Heat Index: 46°   Visibility: 10mi
Dew Point: 43°   Wind: 16mph
Humidity: 87%   Direction: 160°SSE
Pressure: 30.1"   Gusts: NA
Location:  48.53°N, 121.45°W
Report Text: KAWO 231215Z AUTO 16014KT 10SM FEW012 BKN021 OVC028 08/06 A3010 RMK AO1
Loading
Personal Weather Stations






























Interactive Weather Map New forecast layout! Learn more

10-Day Weather Forecast

Advertisements
Track Severe Weather on mobile